Time;durP1;ratioP1;P1;durP2;ratioP2;P2;SDS_P1;SDS_P2;PMS_P1;PMS_P2;Temp;Humidity;BMP_temperature;BMP_pressure;BME280_temperature;BME280_humidity;BME280_pressure;Samples;Min_cycle;Max_cycle;Signal;HPM_P1;HPM_P2
2023/06/07 00:02:01;;;;;;;;;;;18.70;66.80;;;;;;6095608;23;19909;-88
2023/06/07 00:04:27;;;;;;;;;;;18.60;66.50;;;;;;6094447;23;19909;-88
2023/06/07 00:06:56;;;;;;;;;;;18.70;67.20;;;;;;6095582;23;20382;-88
2023/06/07 00:09:22;;;;;;;;;;;18.70;66.60;;;;;;6095547;23;19905;-88
2023/06/07 00:11:47;;;;;;;;;;;18.70;66.60;;;;;;6097302;23;19916;-89
2023/06/07 00:14:13;;;;;;;;;;;18.60;66.60;;;;;;6096630;23;19905;-88
2023/06/07 00:16:38;;;;;;;;;;;18.60;66.50;;;;;;6095475;23;19955;-89
2023/06/07 00:19:06;;;;;;;;;;;18.60;66.80;;;;;;6096004;23;19912;-89
2023/06/07 00:21:32;;;;;;;;;;;18.60;66.40;;;;;;6095324;23;19954;-88
2023/06/07 00:23:57;;;;;;;;;;;18.60;66.50;;;;;;6095720;23;19909;-88
2023/06/07 00:26:23;;;;;;;;;;;18.60;66.80;;;;;;6095923;23;19928;-89
2023/06/07 00:28:49;;;;;;;;;;;18.60;66.80;;;;;;6095689;23;19916;-89
2023/06/07 00:31:14;;;;;;;;;;;18.60;66.60;;;;;;6095367;23;19909;-88
2023/06/07 00:33:40;;;;;;;;;;;18.60;66.60;;;;;;6095616;23;19913;-89
2023/06/07 00:36:05;;;;;;;;;;;18.60;66.40;;;;;;6094912;23;19914;-89
2023/06/07 00:38:31;;;;;;;;;;;18.60;66.40;;;;;;6095433;23;20290;-89
2023/06/07 00:40:56;;;;;;;;;;;18.60;66.40;;;;;;6095102;23;20390;-89
2023/06/07 00:43:23;;;;;;;;;;;18.60;66.90;;;;;;6095214;23;19905;-88
2023/06/07 00:45:49;;;;;;;;;;;18.60;66.60;;;;;;6096162;23;19913;-88
2023/06/07 00:48:14;;;;;;;;;;;18.50;66.50;;;;;;6095154;23;19906;-88
2023/06/07 00:50:40;;;;;;;;;;;18.50;66.60;;;;;;6095599;23;19905;-89
2023/06/07 00:53:07;;;;;;;;;;;18.50;66.50;;;;;;6095034;23;19909;-89
2023/06/07 00:55:32;;;;;;;;;;;18.50;66.20;;;;;;6094813;23;19905;-88
2023/06/07 00:57:58;;;;;;;;;;;18.50;66.50;;;;;;6096150;23;19996;-89
2023/06/07 01:00:24;;;;;;;;;;;18.50;66.50;;;;;;6095203;23;19906;-89
2023/06/07 01:02:51;;;;;;;;;;;18.50;66.40;;;;;;6094162;23;19914;-88
2023/06/07 01:05:17;;;;;;;;;;;18.50;66.80;;;;;;6095692;23;19917;-88
2023/06/07 01:07:53;;;;;;;;;;;18.50;66.30;;;;;;6097475;23;19905;-89
2023/06/07 01:10:19;;;;;;;;;;;18.50;66.40;;;;;;6096100;23;19945;-89
2023/06/07 01:12:45;;;;;;;;;;;18.50;66.30;;;;;;6094996;23;20459;-88
2023/06/07 01:15:13;;;;;;;;;;;18.50;66.70;;;;;;6095786;23;19940;-88
2023/06/07 01:17:44;;;;;;;;;;;18.50;66.30;;;;;;6094955;23;20235;-89
2023/06/07 01:20:19;;;;;;;;;;;18.50;66.50;;;;;;6093920;23;19916;-89
2023/06/07 01:22:45;;;;;;;;;;;18.50;66.50;;;;;;6094290;23;19937;-89
2023/06/07 01:25:11;;;;;;;;;;;18.50;66.30;;;;;;6094297;23;20341;-88
2023/06/07 01:27:39;;;;;;;;;;;18.40;66.30;;;;;;6094595;23;19909;-88
2023/06/07 01:30:07;;;;;;;;;;;18.40;66.30;;;;;;6093716;23;19909;-88
2023/06/07 01:32:32;;;;;;;;;;;18.50;66.50;;;;;;6094054;23;20382;-89
2023/06/07 01:34:58;;;;;;;;;;;18.40;66.40;;;;;;6094526;23;19910;-88
2023/06/07 01:37:24;;;;;;;;;;;18.40;66.60;;;;;;6095984;23;19909;-89
2023/06/07 01:39:51;;;;;;;;;;;18.40;66.50;;;;;;6094422;23;19932;-88
2023/06/07 01:42:17;;;;;;;;;;;18.40;66.40;;;;;;6094674;23;19912;-88
2023/06/07 01:44:45;;;;;;;;;;;18.40;66.50;;;;;;6094353;23;19964;-89
2023/06/07 01:47:12;;;;;;;;;;;18.40;66.60;;;;;;6094555;23;19909;-88
2023/06/07 01:49:38;;;;;;;;;;;18.40;66.40;;;;;;6095107;23;19906;-89
2023/06/07 01:52:04;;;;;;;;;;;18.40;66.50;;;;;;6095010;23;19912;-88
2023/06/07 01:54:29;;;;;;;;;;;18.40;66.60;;;;;;6094502;23;19915;-89
2023/06/07 01:56:58;;;;;;;;;;;18.40;66.50;;;;;;6094271;23;19920;-88
2023/06/07 01:59:33;;;;;;;;;;;18.40;66.50;;;;;;6093873;23;19905;-89
2023/06/07 02:02:12;;;;;;;;;;;18.30;66.50;;;;;;6094953;23;19912;-89
2023/06/07 02:04:41;;;;;;;;;;;18.30;66.40;;;;;;6093833;23;19905;-88
2023/06/07 02:07:09;;;;;;;;;;;18.30;66.40;;;;;;6094592;23;19905;-88
2023/06/07 02:09:37;;;;;;;;;;;18.30;66.50;;;;;;6095703;23;19972;-88
2023/06/07 02:12:03;;;;;;;;;;;18.30;66.50;;;;;;6094287;23;20385;-88
2023/06/07 02:14:29;;;;;;;;;;;18.30;66.50;;;;;;6094202;23;19906;-89
2023/06/07 02:16:55;;;;;;;;;;;18.30;66.50;;;;;;6094521;23;19936;-90
2023/06/07 02:19:20;;;;;;;;;;;18.30;66.40;;;;;;6094286;23;19989;-88
2023/06/07 02:21:46;;;;;;;;;;;18.30;66.50;;;;;;6093127;23;19992;-88
2023/06/07 02:24:12;;;;;;;;;;;18.30;66.60;;;;;;6094668;23;19976;-89
2023/06/07 02:26:38;;;;;;;;;;;18.30;66.60;;;;;;6096092;23;19912;-88
2023/06/07 02:29:03;;;;;;;;;;;18.30;66.80;;;;;;6094354;23;19905;-88
2023/06/07 02:31:29;;;;;;;;;;;18.30;66.70;;;;;;6093740;23;20234;-89
2023/06/07 02:33:55;;;;;;;;;;;18.30;66.60;;;;;;6093823;23;19906;-88
2023/06/07 02:36:32;;;;;;;;;;;18.30;66.60;;;;;;6094290;23;19909;-89
2023/06/07 02:38:58;;;;;;;;;;;18.20;66.70;;;;;;6095792;23;19912;-89
2023/06/07 02:41:23;;;;;;;;;;;18.20;66.70;;;;;;6095745;23;19905;-88
2023/06/07 02:43:49;;;;;;;;;;;18.20;66.70;;;;;;6096345;23;19916;-88
2023/06/07 02:46:15;;;;;;;;;;;18.20;66.60;;;;;;6094371;23;19909;-88
2023/06/07 02:48:40;;;;;;;;;;;18.20;66.70;;;;;;6093850;23;20234;-89
2023/06/07 02:51:06;;;;;;;;;;;18.20;66.70;;;;;;6094081;23;19910;-88
2023/06/07 02:53:32;;;;;;;;;;;18.20;66.70;;;;;;6094873;23;19905;-89
2023/06/07 02:55:57;;;;;;;;;;;18.20;66.70;;;;;;6094680;23;19984;-88
2023/06/07 02:58:24;;;;;;;;;;;18.20;67.00;;;;;;6095827;23;19980;-88
2023/06/07 03:00:49;;;;;;;;;;;18.20;66.80;;;;;;6094120;23;19916;-89
2023/06/07 03:03:18;;;;;;;;;;;18.20;66.90;;;;;;6094419;23;19937;-88
2023/06/07 03:05:48;;;;;;;;;;;18.20;66.90;;;;;;6095471;23;19912;-89
2023/06/07 03:08:13;;;;;;;;;;;18.20;66.90;;;;;;6094372;23;19928;-89
2023/06/07 03:10:39;;;;;;;;;;;18.20;67.00;;;;;;6094064;23;20390;-89
2023/06/07 03:13:04;;;;;;;;;;;18.20;67.00;;;;;;6096099;23;19944;-89
2023/06/07 03:15:30;;;;;;;;;;;18.20;67.10;;;;;;6095877;23;19905;-89
2023/06/07 03:17:56;;;;;;;;;;;18.10;66.90;;;;;;6095119;23;19913;-89
2023/06/07 03:20:21;;;;;;;;;;;18.10;67.10;;;;;;6096012;23;19905;-89
2023/06/07 03:22:47;;;;;;;;;;;18.10;66.90;;;;;;6096743;23;19912;-90
2023/06/07 03:25:13;;;;;;;;;;;18.10;67.10;;;;;;6096579;23;19933;-90
2023/06/07 03:27:39;;;;;;;;;;;18.10;67.20;;;;;;6096565;23;19906;-89
2023/06/07 03:30:05;;;;;;;;;;;18.10;67.10;;;;;;6095926;23;19940;-89
2023/06/07 03:32:30;;;;;;;;;;;18.10;67.20;;;;;;6095913;23;19921;-89
2023/06/07 03:34:58;;;;;;;;;;;18.10;67.20;;;;;;6095120;23;22248;-89
2023/06/07 03:37:24;;;;;;;;;;;18.10;67.30;;;;;;6095197;23;20235;-89
2023/06/07 03:39:49;;;;;;;;;;;18.10;67.30;;;;;;6094965;23;19937;-89
2023/06/07 03:42:15;;;;;;;;;;;18.10;67.30;;;;;;6096915;23;19980;-89
2023/06/07 03:44:40;;;;;;;;;;;18.10;67.30;;;;;;6096616;23;20231;-90
2023/06/07 03:47:06;;;;;;;;;;;18.10;67.40;;;;;;6095686;23;19912;-89
2023/06/07 03:49:31;;;;;;;;;;;18.00;67.40;;;;;;6095631;23;20104;-89
2023/06/07 03:51:57;;;;;;;;;;;18.00;67.40;;;;;;6095784;23;19913;-89
2023/06/07 03:54:22;;;;;;;;;;;18.00;67.40;;;;;;6097805;23;20311;-89
2023/06/07 03:56:48;;;;;;;;;;;18.00;67.50;;;;;;6095308;23;19965;-89
2023/06/07 03:59:15;;;;;;;;;;;18.00;67.50;;;;;;6096201;23;19905;-90
2023/06/07 04:01:40;;;;;;;;;;;18.00;67.50;;;;;;6096051;23;19928;-88
2023/06/07 04:04:07;;;;;;;;;;;18.00;67.60;;;;;;6096077;23;20211;-89
2023/06/07 04:06:34;;;;;;;;;;;18.00;67.60;;;;;;6097555;23;19928;-89
2023/06/07 04:09:03;;;;;;;;;;;18.00;67.60;;;;;;6095625;23;19968;-89
2023/06/07 04:11:29;;;;;;;;;;;18.00;67.60;;;;;;6096917;23;19910;-89
2023/06/07 04:13:54;;;;;;;;;;;18.00;67.70;;;;;;6096209;23;19960;-89
2023/06/07 04:16:20;;;;;;;;;;;18.00;67.70;;;;;;6095844;23;19909;-89
2023/06/07 04:18:46;;;;;;;;;;;18.00;67.70;;;;;;6095459;23;19912;-89
2023/06/07 04:21:12;;;;;;;;;;;18.00;67.70;;;;;;6095717;23;19906;-89
2023/06/07 04:23:37;;;;;;;;;;;18.00;67.70;;;;;;6097346;23;20231;-89
2023/06/07 04:26:05;;;;;;;;;;;18.00;67.70;;;;;;6097640;23;19905;-89
2023/06/07 04:28:32;;;;;;;;;;;18.00;67.80;;;;;;6097030;23;19906;-89
2023/06/07 04:30:58;;;;;;;;;;;18.00;67.90;;;;;;6096555;23;20461;-89
2023/06/07 04:33:24;;;;;;;;;;;18.00;67.90;;;;;;6071629;23;19916;-89
2023/06/07 04:35:57;;;;;;;;;;;18.00;67.90;;;;;;6071500;23;19916;-90
2023/06/07 04:38:23;;;;;;;;;;;18.00;68.00;;;;;;6071420;23;19909;-89
2023/06/07 04:40:52;;;;;;;;;;;18.00;68.00;;;;;;6071090;23;19941;-90
2023/06/07 04:43:18;;;;;;;;;;;18.00;68.00;;;;;;6071295;23;19905;-89
2023/06/07 04:45:46;;;;;;;;;;;18.00;68.10;;;;;;6071544;23;19957;-88
2023/06/07 04:48:12;;;;;;;;;;;18.00;68.10;;;;;;6069974;23;19988;-89
2023/06/07 04:50:38;;;;;;;;;;;18.00;68.10;;;;;;6071221;23;19933;-89
2023/06/07 04:53:04;;;;;;;;;;;18.00;68.00;;;;;;6071502;23;19912;-88
2023/06/07 04:55:31;;;;;;;;;;;18.00;68.10;;;;;;6072091;23;20324;-89
2023/06/07 04:57:57;;;;;;;;;;;18.00;68.20;;;;;;6071360;23;19916;-89
2023/06/07 05:00:24;;;;;;;;;;;18.00;68.20;;;;;;6096578;23;19976;-89
2023/06/07 05:02:50;;;;;;;;;;;18.00;68.20;;;;;;6070943;23;19909;-89
2023/06/07 05:05:19;;;;;;;;;;;18.00;68.20;;;;;;6071143;23;19912;-90
2023/06/07 05:07:46;;;;;;;;;;;18.10;68.40;;;;;;6070885;23;19909;-90
2023/06/07 05:10:12;;;;;;;;;;;18.10;68.40;;;;;;6070633;23;19987;-89
2023/06/07 05:12:37;;;;;;;;;;;18.10;68.30;;;;;;6096794;23;19945;-89
2023/06/07 05:15:05;;;;;;;;;;;18.10;68.30;;;;;;6069666;23;19916;-90
2023/06/07 05:17:30;;;;;;;;;;;18.10;68.30;;;;;;6071502;23;19924;-89
2023/06/07 05:19:56;;;;;;;;;;;18.20;68.50;;;;;;6095891;23;20293;-89
2023/06/07 05:22:22;;;;;;;;;;;18.20;68.50;;;;;;6070696;23;19989;-89
2023/06/07 05:24:47;;;;;;;;;;;18.20;68.50;;;;;;6071195;23;20323;-89
2023/06/07 05:27:14;;;;;;;;;;;18.20;68.50;;;;;;6071320;23;19916;-89
2023/06/07 05:29:40;;;;;;;;;;;18.20;68.50;;;;;;6072175;23;19932;-89
2023/06/07 05:32:05;;;;;;;;;;;18.20;68.60;;;;;;6087020;23;19913;-89
2023/06/07 05:34:31;;;;;;;;;;;18.20;68.70;;;;;;6100064;23;19905;-89
2023/06/07 05:36:58;;;;;;;;;;;18.20;68.60;;;;;;6098691;23;19915;-89
2023/06/07 05:39:23;;;;;;;;;;;18.30;68.90;;;;;;6097794;23;19909;-90
2023/06/07 05:41:49;;;;;;;;;;;18.30;68.80;;;;;;6097789;23;20365;-89
2023/06/07 05:44:15;;;;;;;;;;;18.30;68.80;;;;;;6098425;23;19940;-89
2023/06/07 05:46:40;;;;;;;;;;;18.30;69.60;;;;;;6100297;23;19905;-90
2023/06/07 05:49:06;;;;;;;;;;;18.30;68.90;;;;;;6098654;23;19905;-89
2023/06/07 05:51:31;;;;;;;;;;;18.40;69.00;;;;;;6101639;23;19905;-92
2023/06/07 05:53:57;;;;;;;;;;;18.40;69.00;;;;;;6101966;23;20196;-92
2023/06/07 05:56:23;;;;;;;;;;;18.40;69.10;;;;;;6100459;23;20337;-90
2023/06/07 05:58:51;;;;;;;;;;;18.50;69.10;;;;;;6124693;23;19909;-89
2023/06/07 06:01:17;;;;;;;;;;;18.50;69.20;;;;;;6126400;23;19905;-89
2023/06/07 06:03:43;;;;;;;;;;;18.50;69.30;;;;;;6099836;23;19912;-89
2023/06/07 06:06:16;;;;;;;;;;;18.50;69.30;;;;;;6099599;23;19988;-89
2023/06/07 06:08:41;;;;;;;;;;;18.50;69.30;;;;;;6099990;23;19905;-89
2023/06/07 06:11:09;;;;;;;;;;;18.60;69.40;;;;;;6097169;23;19905;-87
2023/06/07 06:13:35;;;;;;;;;;;18.60;69.40;;;;;;6099317;23;19912;-89
2023/06/07 06:16:00;;;;;;;;;;;18.60;69.80;;;;;;6098790;23;19904;-90
2023/06/07 06:18:26;;;;;;;;;;;18.60;70.90;;;;;;6100354;23;20307;-90
2023/06/07 06:20:51;;;;;;;;;;;18.70;70.30;;;;;;6099328;23;19912;-90
2023/06/07 06:23:17;;;;;;;;;;;18.70;70.10;;;;;;6099381;23;19905;-90
2023/06/07 06:25:43;;;;;;;;;;;18.70;70.10;;;;;;6099071;23;19912;-90
2023/06/07 06:28:08;;;;;;;;;;;18.80;70.10;;;;;;6098653;23;19936;-89
2023/06/07 06:30:34;;;;;;;;;;;18.80;70.00;;;;;;6096533;23;19917;-90
2023/06/07 06:32:59;;;;;;;;;;;18.90;70.80;;;;;;6097946;23;19917;-90
2023/06/07 06:35:27;;;;;;;;;;;18.90;70.10;;;;;;6099005;23;20194;-89
2023/06/07 06:37:52;;;;;;;;;;;18.90;70.10;;;;;;6099806;23;20028;-90
2023/06/07 06:40:20;;;;;;;;;;;18.90;70.10;;;;;;6125054;23;19905;-90
2023/06/07 06:42:46;;;;;;;;;;;19.00;70.10;;;;;;6099801;23;19933;-90
2023/06/07 06:45:11;;;;;;;;;;;19.00;70.00;;;;;;6099326;23;19912;-90
2023/06/07 06:47:41;;;;;;;;;;;19.10;69.90;;;;;;6099854;23;19905;-90
2023/06/07 06:50:10;;;;;;;;;;;19.10;70.00;;;;;;6099849;23;19905;-90
2023/06/07 06:52:37;;;;;;;;;;;19.10;70.10;;;;;;6100661;23;19905;-90
2023/06/07 06:55:03;;;;;;;;;;;19.10;70.20;;;;;;6101427;23;20047;-89
2023/06/07 06:57:28;;;;;;;;;;;19.20;70.30;;;;;;6101585;23;19944;-90
2023/06/07 06:59:54;;;;;;;;;;;19.20;69.90;;;;;;6127161;23;20311;-90
2023/06/07 07:02:19;;;;;;;;;;;19.20;69.70;;;;;;6101456;23;19909;-90
2023/06/07 07:04:45;;;;;;;;;;;19.30;69.70;;;;;;6100706;23;19916;-90
2023/06/07 07:07:11;;;;;;;;;;;19.30;69.50;;;;;;6101148;23;20045;-89
2023/06/07 07:09:36;;;;;;;;;;;19.40;69.50;;;;;;6101493;23;19916;-90
2023/06/07 07:12:02;;;;;;;;;;;19.40;69.50;;;;;;6127365;23;19913;-90
2023/06/07 07:14:28;;;;;;;;;;;19.40;68.80;;;;;;6101616;23;19912;-91
2023/06/07 07:16:53;;;;;;;;;;;19.50;68.50;;;;;;6101545;23;19909;-91
2023/06/07 07:19:19;;;;;;;;;;;19.50;69.80;;;;;;6127061;23;20465;-90
2023/06/07 07:21:44;;;;;;;;;;;19.60;68.60;;;;;;6101529;23;19988;-91
2023/06/07 07:24:10;;;;;;;;;;;19.60;68.20;;;;;;6126237;23;19979;-91
2023/06/07 07:26:35;;;;;;;;;;;19.70;69.10;;;;;;6101419;23;19905;-90
2023/06/07 07:29:01;;;;;;;;;;;19.70;69.20;;;;;;6100986;23;19905;-90
2023/06/07 07:31:30;;;;;;;;;;;19.70;69.60;;;;;;6101153;23;19909;-91
2023/06/07 07:33:56;;;;;;;;;;;19.70;69.20;;;;;;6127279;23;19905;-91
2023/06/07 07:36:24;;;;;;;;;;;19.80;68.30;;;;;;6100670;23;19913;-90
2023/06/07 07:38:51;;;;;;;;;;;19.80;68.50;;;;;;6100891;23;19988;-90
2023/06/07 07:41:17;;;;;;;;;;;19.90;68.00;;;;;;6127493;23;19905;-90
2023/06/07 07:43:43;;;;;;;;;;;19.90;68.40;;;;;;6101282;23;19928;-90
2023/06/07 07:46:08;;;;;;;;;;;19.90;67.80;;;;;;6101226;23;19909;-90
2023/06/07 07:48:34;;;;;;;;;;;20.00;68.50;;;;;;6100969;23;19905;-91
2023/06/07 07:51:00;;;;;;;;;;;20.00;68.30;;;;;;6101434;23;19913;-91
2023/06/07 07:53:25;;;;;;;;;;;20.10;68.70;;;;;;6101005;23;19964;-94
2023/06/07 07:55:51;;;;;;;;;;;20.10;67.90;;;;;;6100549;23;19960;-89
2023/06/07 07:58:16;;;;;;;;;;;20.20;69.60;;;;;;6099622;23;20242;-90
2023/06/07 08:00:42;;;;;;;;;;;20.20;68.80;;;;;;6127125;23;19913;-89
2023/06/07 08:03:08;;;;;;;;;;;20.20;68.70;;;;;;6100078;23;20598;-90
2023/06/07 08:05:33;;;;;;;;;;;20.30;68.50;;;;;;6099979;23;19912;-89
2023/06/07 08:08:00;;;;;;;;;;;20.30;68.40;;;;;;6099622;23;19909;-89
2023/06/07 08:10:26;;;;;;;;;;;20.30;68.40;;;;;;6100575;23;20374;-90
2023/06/07 08:12:52;;;;;;;;;;;20.30;68.10;;;;;;6100974;23;19937;-89
2023/06/07 08:15:17;;;;;;;;;;;20.40;67.70;;;;;;6099966;23;19921;-90
2023/06/07 08:17:43;;;;;;;;;;;20.40;67.40;;;;;;6097980;23;19919;-90
2023/06/07 08:20:08;;;;;;;;;;;20.50;67.30;;;;;;6099499;23;19905;-90
2023/06/07 08:22:37;;;;;;;;;;;20.50;67.10;;;;;;6124999;23;20032;-90
2023/06/07 08:25:04;;;;;;;;;;;20.50;67.00;;;;;;6097975;23;19905;-89
2023/06/07 08:27:29;;;;;;;;;;;20.50;67.00;;;;;;6099031;23;19908;-89
2023/06/07 08:29:55;;;;;;;;;;;20.50;67.00;;;;;;6098982;23;19912;-90
2023/06/07 08:32:21;;;;;;;;;;;20.60;66.80;;;;;;6099838;23;20219;-90
2023/06/07 08:34:47;;;;;;;;;;;20.60;66.70;;;;;;6099616;23;19905;-91
2023/06/07 08:37:12;;;;;;;;;;;20.60;66.70;;;;;;6099111;23;19909;-90
2023/06/07 08:39:38;;;;;;;;;;;20.70;66.70;;;;;;6099554;23;19908;-90
2023/06/07 08:42:03;;;;;;;;;;;20.60;66.30;;;;;;6099926;23;19909;-90
2023/06/07 08:44:30;;;;;;;;;;;20.60;66.30;;;;;;6098944;23;19905;-89
2023/06/07 08:46:56;;;;;;;;;;;20.70;66.60;;;;;;6098846;23;19905;-90
2023/06/07 08:49:23;;;;;;;;;;;20.70;66.50;;;;;;6124088;23;20231;-89
2023/06/07 08:51:49;;;;;;;;;;;20.70;66.30;;;;;;6099707;23;19909;-91
2023/06/07 08:54:18;;;;;;;;;;;20.80;67.30;;;;;;6099836;23;20371;-91
2023/06/07 08:56:44;;;;;;;;;;;20.80;66.90;;;;;;6099231;23;19909;-92
2023/06/07 08:59:10;;;;;;;;;;;20.90;66.60;;;;;;6098864;23;20164;-92
2023/06/07 09:01:37;;;;;;;;;;;21.00;66.50;;;;;;6100685;23;19995;-91
2023/06/07 09:04:02;;;;;;;;;;;21.00;67.20;;;;;;6099200;23;19943;-92
2023/06/07 09:06:28;;;;;;;;;;;21.00;66.50;;;;;;6100173;23;19905;-92
2023/06/07 09:08:53;;;;;;;;;;;21.10;65.90;;;;;;6099322;23;19912;-91
2023/06/07 09:11:19;;;;;;;;;;;21.10;66.10;;;;;;6098957;23;19905;-92
2023/06/07 09:13:45;;;;;;;;;;;21.10;65.50;;;;;;6099954;23;19940;-92
2023/06/07 09:16:11;;;;;;;;;;;21.10;65.80;;;;;;6099863;23;19980;-91
2023/06/07 09:18:44;;;;;;;;;;;21.10;65.60;;;;;;6099495;23;20339;-92
2023/06/07 09:21:29;;;;;;;;;;;21.10;66.30;;;;;;6098714;23;19905;-93
2023/06/07 09:23:57;;;;;;;;;;;21.10;66.30;;;;;;6099127;23;19956;-92
2023/06/07 09:26:23;;;;;;;;;;;21.20;67.20;;;;;;6098990;23;19909;-91
2023/06/07 09:28:49;;;;;;;;;;;21.20;66.80;;;;;;6124807;23;20341;-89
2023/06/07 09:31:28;;;;;;;;;;;21.30;66.30;;;;;;6093112;23;19913;-90
2023/06/07 09:33:54;;;;;;;;;;;21.30;65.90;;;;;;6070183;23;20338;-89
2023/06/07 09:36:20;;;;;;;;;;;21.30;65.80;;;;;;6068857;23;19909;-88
2023/06/07 09:38:45;;;;;;;;;;;21.30;65.20;;;;;;6094928;23;19958;-89
2023/06/07 09:41:12;;;;;;;;;;;21.30;65.60;;;;;;6095908;23;19981;-90
2023/06/07 09:43:42;;;;;;;;;;;21.30;65.80;;;;;;6070853;23;20448;-89
2023/06/07 09:46:08;;;;;;;;;;;21.40;66.60;;;;;;6070724;23;19905;-89
2023/06/07 09:48:50;;;;;;;;;;;21.40;65.00;;;;;;6067815;23;19913;-89
2023/06/07 09:51:17;;;;;;;;;;;21.40;65.00;;;;;;6068900;23;19906;-90
2023/06/07 09:53:51;;;;;;;;;;;21.40;65.00;;;;;;6094953;23;19933;-89
2023/06/07 09:56:17;;;;;;;;;;;21.40;65.80;;;;;;6069950;23;19933;-90
2023/06/07 09:58:46;;;;;;;;;;;21.40;65.80;;;;;;6069282;23;19905;-90
2023/06/07 10:01:11;;;;;;;;;;;21.30;65.30;;;;;;6069730;23;19909;-90
2023/06/07 10:03:47;;;;;;;;;;;21.30;65.90;;;;;;6095531;23;19959;-91
2023/06/07 10:06:16;;;;;;;;;;;21.40;66.20;;;;;;6095144;23;19906;-89
2023/06/07 10:08:42;;;;;;;;;;;21.30;65.30;;;;;;6068728;23;19933;-88
2023/06/07 10:11:08;;;;;;;;;;;21.30;64.70;;;;;;6069640;23;19909;-90
2023/06/07 10:13:34;;;;;;;;;;;21.20;64.70;;;;;;6070247;23;19988;-89
2023/06/07 10:16:01;;;;;;;;;;;21.20;64.00;;;;;;6070882;23;19913;-91
2023/06/07 10:18:26;;;;;;;;;;;21.20;64.80;;;;;;6070437;23;19933;-89
2023/06/07 10:20:57;;;;;;;;;;;21.20;63.30;;;;;;6069078;23;19913;-89
2023/06/07 10:23:28;;;;;;;;;;;21.20;62.70;;;;;;6094742;23;20399;-89
2023/06/07 10:25:59;;;;;;;;;;;21.20;63.90;;;;;;6093767;23;20335;-91
2023/06/07 10:28:40;;;;;;;;;;;21.30;65.40;;;;;;6069635;23;20432;-91
2023/06/07 10:31:09;;;;;;;;;;;21.40;64.40;;;;;;6070010;23;20326;-89
2023/06/07 10:33:36;;;;;;;;;;;21.30;64.30;;;;;;6068665;23;19992;-89
2023/06/07 10:36:02;;;;;;;;;;;21.30;62.60;;;;;;6069420;23;20239;-88
2023/06/07 10:38:45;;;;;;;;;;;21.20;62.70;;;;;;6068838;23;20307;-88
2023/06/07 10:41:11;;;;;;;;;;;21.20;62.00;;;;;;6047752;23;19986;-89
2023/06/07 10:43:37;;;;;;;;;;;21.20;62.50;;;;;;6069118;23;19936;-88
2023/06/07 10:46:25;;;;;;;;;;;21.20;62.20;;;;;;6069814;23;19909;-89
2023/06/07 10:48:52;;;;;;;;;;;21.10;61.90;;;;;;6069953;23;20354;-89
2023/06/07 10:51:19;;;;;;;;;;;21.10;61.70;;;;;;6096094;23;19912;-89
2023/06/07 10:53:55;;;;;;;;;;;21.10;61.80;;;;;;6094932;23;19983;-92
2023/06/07 10:56:27;;;;;;;;;;;21.00;61.50;;;;;;6071704;23;19909;-89
2023/06/07 10:58:53;;;;;;;;;;;21.00;61.20;;;;;;6096286;23;19912;-89
2023/06/07 11:01:24;;;;;;;;;;;21.00;60.60;;;;;;6070427;23;19916;-88
2023/06/07 11:03:50;;;;;;;;;;;20.90;60.90;;;;;;6069200;23;19933;-88
2023/06/07 11:06:16;;;;;;;;;;;21.00;60.90;;;;;;6069971;23;19913;-87
2023/06/07 11:08:42;;;;;;;;;;;21.00;60.70;;;;;;6068173;23;19909;-88
2023/06/07 11:11:26;;;;;;;;;;;21.00;61.40;;;;;;6068067;23;20227;-89
2023/06/07 11:14:08;;;;;;;;;;;20.90;61.10;;;;;;6067094;23;19912;-89
2023/06/07 11:16:33;;;;;;;;;;;20.90;61.50;;;;;;6068096;23;19915;-89
2023/06/07 11:19:02;;;;;;;;;;;21.00;63.10;;;;;;6066656;23;19996;-88
2023/06/07 11:21:27;;;;;;;;;;;21.00;62.40;;;;;;6068131;23;20323;-89
2023/06/07 11:24:09;;;;;;;;;;;21.00;63.20;;;;;;6093579;23;19918;-90
2023/06/07 11:26:35;;;;;;;;;;;21.00;64.30;;;;;;6094817;23;19940;-90
2023/06/07 11:29:00;;;;;;;;;;;21.00;66.00;;;;;;6067762;23;19917;-90
2023/06/07 11:31:26;;;;;;;;;;;21.10;64.40;;;;;;6094242;23;19916;-90
2023/06/07 11:33:51;;;;;;;;;;;21.10;64.90;;;;;;6069074;23;19912;-89
2023/06/07 11:36:17;;;;;;;;;;;21.00;65.70;;;;;;6069168;23;19913;-88
2023/06/07 11:38:47;;;;;;;;;;;21.00;65.30;;;;;;6070113;23;19905;-92
2023/06/07 11:41:13;;;;;;;;;;;21.00;64.10;;;;;;6067956;23;20214;-91
2023/06/07 11:43:38;;;;;;;;;;;21.00;63.30;;;;;;6070006;23;20398;-92
2023/06/07 11:46:04;;;;;;;;;;;20.90;64.90;;;;;;6072451;23;19905;-92
2023/06/07 11:48:30;;;;;;;;;;;21.00;64.60;;;;;;6072057;23;19956;-91
2023/06/07 11:50:56;;;;;;;;;;;21.00;64.00;;;;;;6072372;23;19938;-89
2023/06/07 11:53:21;;;;;;;;;;;21.00;62.90;;;;;;6073560;23;19911;-90
2023/06/07 11:55:47;;;;;;;;;;;20.90;63.00;;;;;;6073022;23;19920;-89
2023/06/07 11:58:13;;;;;;;;;;;20.90;61.60;;;;;;6073240;23;19909;-89
2023/06/07 12:00:41;;;;;;;;;;;20.90;62.40;;;;;;6072557;23;20234;-90
2023/06/07 12:03:06;;;;;;;;;;;20.80;62.40;;;;;;6072826;23;19905;-89
2023/06/07 12:05:34;;;;;;;;;;;20.80;62.40;;;;;;6073214;23;20263;-89
2023/06/07 12:08:01;;;;;;;;;;;20.80;62.10;;;;;;6073617;23;19983;-90
2023/06/07 12:10:27;;;;;;;;;;;20.80;62.50;;;;;;6070571;23;19912;-89
2023/06/07 12:13:12;;;;;;;;;;;20.80;61.90;;;;;;6096592;23;19997;-88
2023/06/07 12:15:45;;;;;;;;;;;20.80;62.10;;;;;;6071804;23;19905;-89
2023/06/07 12:18:27;;;;;;;;;;;20.80;61.90;;;;;;6070839;23;20024;-88
2023/06/07 12:21:03;;;;;;;;;;;20.80;62.80;;;;;;6068422;23;19917;-89
2023/06/07 12:23:29;;;;;;;;;;;20.80;61.60;;;;;;6070460;23;20239;-89
2023/06/07 12:26:11;;;;;;;;;;;20.80;62.20;;;;;;6069960;23;19906;-89
2023/06/07 12:28:37;;;;;;;;;;;20.80;63.10;;;;;;6070876;23;19913;-91
2023/06/07 12:31:02;;;;;;;;;;;20.80;62.70;;;;;;6069559;23;19994;-89
2023/06/07 12:33:31;;;;;;;;;;;20.80;62.90;;;;;;6070556;23;19919;-89
2023/06/07 12:35:59;;;;;;;;;;;20.80;62.70;;;;;;6070127;23;19906;-89
2023/06/07 12:38:25;;;;;;;;;;;20.80;61.70;;;;;;6068510;23;20473;-88
2023/06/07 12:40:50;;;;;;;;;;;20.80;61.20;;;;;;6095800;23;19941;-90
2023/06/07 12:43:17;;;;;;;;;;;20.80;62.40;;;;;;6071659;23;19909;-89
2023/06/07 12:45:43;;;;;;;;;;;20.80;63.70;;;;;;6069913;23;19929;-89
2023/06/07 12:48:08;;;;;;;;;;;20.80;62.10;;;;;;6070164;23;20314;-90
2023/06/07 12:50:34;;;;;;;;;;;20.80;62.80;;;;;;6069877;23;19912;-89
2023/06/07 12:53:00;;;;;;;;;;;20.80;63.50;;;;;;6069030;23;19912;-89
2023/06/07 12:55:25;;;;;;;;;;;20.80;63.10;;;;;;6069759;23;19911;-90
2023/06/07 12:57:51;;;;;;;;;;;20.90;62.00;;;;;;6070506;23;19934;-89
2023/06/07 13:00:17;;;;;;;;;;;20.80;61.40;;;;;;6094857;23;19912;-89
2023/06/07 13:02:43;;;;;;;;;;;20.80;60.60;;;;;;6069523;23;19937;-89
2023/06/07 13:05:10;;;;;;;;;;;20.70;60.90;;;;;;6069386;23;19913;-90
2023/06/07 13:07:35;;;;;;;;;;;20.70;61.30;;;;;;6071146;23;19905;-89
2023/06/07 13:10:03;;;;;;;;;;;20.70;60.50;;;;;;6071359;23;19980;-87
2023/06/07 13:12:30;;;;;;;;;;;20.70;61.00;;;;;;6095971;23;19906;-89
2023/06/07 13:14:55;;;;;;;;;;;20.70;61.10;;;;;;6095690;23;19944;-89
2023/06/07 13:17:21;;;;;;;;;;;20.60;61.50;;;;;;6070461;23;20243;-89
2023/06/07 13:19:46;;;;;;;;;;;20.60;60.80;;;;;;6070770;23;19905;-88
2023/06/07 13:22:12;;;;;;;;;;;20.60;61.60;;;;;;6070487;23;19905;-88
2023/06/07 13:24:38;;;;;;;;;;;20.60;62.60;;;;;;6070310;23;19913;-88
2023/06/07 13:27:04;;;;;;;;;;;20.60;63.30;;;;;;6070120;23;20041;-89
2023/06/07 13:29:29;;;;;;;;;;;20.60;64.20;;;;;;6069702;23;19970;-89
2023/06/07 13:31:55;;;;;;;;;;;20.60;63.60;;;;;;6077094;23;19917;-88
2023/06/07 13:34:21;;;;;;;;;;;20.60;62.20;;;;;;6095175;23;19917;-88
2023/06/07 13:36:46;;;;;;;;;;;20.60;62.60;;;;;;6092993;23;19964;-88
2023/06/07 13:39:12;;;;;;;;;;;20.60;61.40;;;;;;6093611;23;20326;-88
2023/06/07 13:41:40;;;;;;;;;;;20.70;62.00;;;;;;6093627;23;19905;-89
2023/06/07 13:44:07;;;;;;;;;;;20.70;61.70;;;;;;6095183;23;19913;-88
2023/06/07 13:46:32;;;;;;;;;;;20.70;61.10;;;;;;6092017;23;20229;-89
2023/06/07 13:48:58;;;;;;;;;;;20.70;61.70;;;;;;6095014;23;19916;-90
2023/06/07 13:51:23;;;;;;;;;;;20.70;61.60;;;;;;6093210;23;19956;-91
2023/06/07 13:53:49;;;;;;;;;;;20.70;63.10;;;;;;6094709;23;20448;-91
2023/06/07 13:56:15;;;;;;;;;;;20.70;62.40;;;;;;6095224;23;20243;-89
2023/06/07 13:58:40;;;;;;;;;;;20.70;62.50;;;;;;6093015;23;19921;-90
2023/06/07 14:01:06;;;;;;;;;;;20.70;61.30;;;;;;6093984;23;19906;-89
2023/06/07 14:03:32;;;;;;;;;;;20.70;61.10;;;;;;6094119;23;19980;-90
2023/06/07 14:06:00;;;;;;;;;;;20.60;60.30;;;;;;6094467;23;19914;-91
2023/06/07 14:08:26;;;;;;;;;;;20.60;61.60;;;;;;6094402;23;19913;-90
2023/06/07 14:10:52;;;;;;;;;;;20.60;61.20;;;;;;6094898;23;19909;-91
2023/06/07 14:13:18;;;;;;;;;;;20.60;61.00;;;;;;6096388;23;20379;-91
2023/06/07 14:15:47;;;;;;;;;;;20.60;61.10;;;;;;6093805;23;19909;-90